Time;durP1;ratioP1;P1;durP2;ratioP2;P2;SDS_P1;SDS_P2;PMS_P1;PMS_P2;Temp;Humidity;BMP_temperature;BMP_pressure;BME280_temperature;BME280_humidity;BME280_pressure;Samples;Min_cycle;Max_cycle;Signal;HPM_P1;HPM_P2
2023/08/01 00:01:41;;;;;;;4.97;4.27;;;22.90;75.20;;;;;;4977063;28;20584;-87
2023/08/01 00:04:10;;;;;;;3.97;3.17;;;22.90;75.00;;;;;;4974039;28;20545;-88
2023/08/01 00:06:39;;;;;;;4.73;3.63;;;22.90;74.90;;;;;;4956490;28;20550;-88
2023/08/01 00:09:08;;;;;;;5.70;3.10;;;22.90;74.90;;;;;;4968568;28;20522;-89
2023/08/01 00:11:37;;;;;;;4.67;4.10;;;22.90;75.10;;;;;;4955796;28;20467;-88
2023/08/01 00:14:05;;;;;;;3.43;3.13;;;22.90;75.10;;;;;;4951157;28;20463;-88
2023/08/01 00:16:34;;;;;;;5.90;3.90;;;22.90;74.40;;;;;;4972901;28;20442;-89
2023/08/01 00:19:03;;;;;;;4.23;3.57;;;22.90;74.50;;;;;;4941921;28;20525;-87
2023/08/01 00:21:31;;;;;;;4.13;3.73;;;22.90;74.70;;;;;;4973483;28;20459;-88
2023/08/01 00:24:01;;;;;;;3.97;3.57;;;22.90;74.80;;;;;;4976060;28;20468;-87
2023/08/01 00:26:30;;;;;;;5.40;3.60;;;22.90;74.70;;;;;;4962663;28;20477;-88
2023/08/01 00:28:59;;;;;;;3.73;3.43;;;22.90;74.50;;;;;;4948212;28;20447;-88
2023/08/01 00:31:27;;;;;;;4.50;3.17;;;22.90;74.50;;;;;;4975014;28;20462;-87
2023/08/01 00:33:57;;;;;;;5.10;3.87;;;22.90;74.50;;;;;;4963237;28;20470;-88
2023/08/01 00:36:25;;;;;;;5.50;3.70;;;23.00;74.50;;;;;;4972156;28;20476;-88
2023/08/01 00:38:54;;;;;;;3.70;3.40;;;22.90;74.60;;;;;;4963492;28;20562;-87
2023/08/01 00:41:25;;;;;;;4.03;3.50;;;22.90;75.00;;;;;;4962712;28;20473;-88
2023/08/01 00:43:53;;;;;;;4.27;3.87;;;22.80;75.00;;;;;;4955739;28;20459;-88
2023/08/01 00:46:22;;;;;;;4.67;3.37;;;22.80;75.10;;;;;;4954506;28;20462;-87
2023/08/01 00:48:50;;;;;;;3.60;3.30;;;22.80;75.20;;;;;;4973378;28;20949;-87
2023/08/01 00:51:19;;;;;;;3.13;2.90;;;22.80;75.00;;;;;;4972076;28;20526;-88
2023/08/01 00:53:48;;;;;;;5.23;3.50;;;22.90;74.80;;;;;;4977418;28;20451;-88
2023/08/01 00:56:16;;;;;;;3.83;3.07;;;22.90;74.50;;;;;;4974512;28;20867;-88
2023/08/01 00:58:47;;;;;;;4.77;4.37;;;22.90;74.30;;;;;;4964703;28;20454;-88
2023/08/01 01:01:16;;;;;;;5.13;3.70;;;22.90;74.20;;;;;;4973191;28;20478;-88
2023/08/01 01:03:45;;;;;;;3.40;3.10;;;22.90;74.50;;;;;;4980021;28;20474;-88
2023/08/01 01:06:18;;;;;;;3.20;2.87;;;22.90;74.50;;;;;;4974397;28;21324;-87
2023/08/01 01:08:47;;;;;;;4.77;3.10;;;22.90;74.30;;;;;;4972356;28;20464;-88
2023/08/01 01:11:16;;;;;;;3.97;3.67;;;22.90;74.40;;;;;;4959131;28;20478;-88
2023/08/01 01:13:47;;;;;;;3.20;2.90;;;22.80;74.60;;;;;;4967704;28;20560;-88
2023/08/01 01:16:15;;;;;;;4.63;3.47;;;22.80;74.30;;;;;;4963856;28;20504;-88
2023/08/01 01:18:43;;;;;;;4.23;3.83;;;22.90;74.40;;;;;;4943561;28;20929;-88
2023/08/01 01:21:14;;;;;;;6.30;3.77;;;22.90;74.10;;;;;;4970349;28;21013;-88
2023/08/01 01:23:43;;;;;;;3.40;3.10;;;22.90;74.00;;;;;;4954385;28;20836;-88
2023/08/01 01:26:13;;;;;;;3.23;2.97;;;22.90;74.30;;;;;;4940147;28;20471;-88
2023/08/01 01:28:42;;;;;;;4.27;3.13;;;22.90;74.30;;;;;;4962622;28;20970;-88
2023/08/01 01:31:11;;;;;;;3.43;3.13;;;22.80;74.30;;;;;;4973638;28;21014;-87
2023/08/01 01:33:39;;;;;;;7.30;3.07;;;22.80;74.30;;;;;;4949961;28;20503;-88
2023/08/01 01:36:08;;;;;;;3.77;3.20;;;22.70;74.60;;;;;;4975674;28;20500;-88
2023/08/01 01:38:38;;;;;;;3.30;3.00;;;22.70;74.50;;;;;;4955899;28;20479;-87
2023/08/01 01:41:06;;;;;;;5.80;3.30;;;22.80;74.80;;;;;;4961752;28;21044;-88
2023/08/01 01:43:37;;;;;;;4.33;3.57;;;22.70;75.20;;;;;;4954240;28;21017;-87
2023/08/01 01:46:07;;;;;;;3.00;2.63;;;22.70;74.80;;;;;;4968829;28;20467;-87
2023/08/01 01:48:35;;;;;;;3.67;3.37;;;22.70;74.70;;;;;;4980358;28;20916;-87
2023/08/01 01:51:05;;;;;;;4.73;3.50;;;22.80;74.70;;;;;;4957490;28;20483;-88
2023/08/01 01:53:33;;;;;;;3.33;3.00;;;22.80;74.50;;;;;;4966225;28;20473;-87
2023/08/01 01:56:04;;;;;;;5.03;3.83;;;22.80;74.60;;;;;;4955633;28;20461;-88
2023/08/01 01:58:33;;;;;;;3.60;3.23;;;22.70;74.60;;;;;;4963219;28;21029;-88
2023/08/01 02:01:01;;;;;;;3.50;3.10;;;22.70;74.80;;;;;;4963227;28;20498;-88
2023/08/01 02:03:30;;;;;;;6.60;4.20;;;22.70;74.50;;;;;;4970640;28;20471;-88
2023/08/01 02:05:59;;;;;;;4.37;3.53;;;22.70;74.50;;;;;;4955075;28;20516;-87
2023/08/01 02:08:28;;;;;;;3.50;3.10;;;22.70;74.70;;;;;;4965180;28;20469;-87
2023/08/01 02:10:58;;;;;;;4.00;3.70;;;22.60;75.10;;;;;;4955071;28;20867;-90
2023/08/01 02:13:29;;;;;;;4.50;3.57;;;22.50;75.20;;;;;;4970232;28;21026;-87
2023/08/01 02:16:02;;;;;;;5.37;4.00;;;22.50;75.30;;;;;;4971005;28;20464;-88
2023/08/01 02:18:31;;;;;;;4.57;3.80;;;22.50;75.10;;;;;;4966472;28;20488;-87
2023/08/01 02:21:00;;;;;;;4.90;3.83;;;22.50;75.50;;;;;;4938360;28;21096;-87
2023/08/01 02:23:28;;;;;;;3.83;3.47;;;22.50;75.40;;;;;;4958496;28;20513;-88
2023/08/01 02:25:57;;;;;;;3.87;3.47;;;22.40;75.40;;;;;;4939317;28;20490;-87
2023/08/01 02:28:27;;;;;;;9.83;3.40;;;22.40;75.30;;;;;;4924531;28;20455;-88
2023/08/01 02:30:56;;;;;;;5.93;3.97;;;22.30;75.90;;;;;;4946497;28;20478;-88
2023/08/01 02:33:24;;;;;;;6.30;3.40;;;22.10;76.60;;;;;;4951207;28;20472;-89
2023/08/01 02:35:53;;;;;;;4.87;4.00;;;22.00;77.10;;;;;;4980481;28;20806;-88
2023/08/01 02:38:21;;;;;;;5.87;3.50;;;21.90;77.40;;;;;;4960452;28;20468;-87
2023/08/01 02:40:51;;;;;;;4.37;3.30;;;21.80;77.50;;;;;;4960669;28;20572;-87
2023/08/01 02:43:20;;;;;;;4.57;4.10;;;21.80;77.70;;;;;;4949318;28;20837;-87
2023/08/01 02:45:50;;;;;;;5.73;3.73;;;21.80;77.80;;;;;;4973253;28;20479;-87
2023/08/01 02:48:18;;;;;;;4.47;2.90;;;21.80;77.80;;;;;;4961994;28;20464;-87
2023/08/01 02:50:48;;;;;;;4.80;4.17;;;21.90;77.70;;;;;;4975906;28;20478;-88
2023/08/01 02:53:16;;;;;;;4.17;3.67;;;22.00;77.40;;;;;;4981421;28;20470;-88
2023/08/01 02:55:46;;;;;;;7.50;4.00;;;22.00;77.30;;;;;;4973033;28;20450;-88
2023/08/01 02:58:15;;;;;;;5.23;3.97;;;22.00;77.30;;;;;;4981252;28;20506;-88
2023/08/01 03:00:44;;;;;;;3.50;3.20;;;22.00;77.60;;;;;;4958058;28;21532;-88
2023/08/01 03:03:15;;;;;;;4.67;3.73;;;21.90;77.70;;;;;;4976072;28;20477;-89
2023/08/01 03:05:44;;;;;;;5.97;3.63;;;21.80;78.20;;;;;;4964559;28;20565;-88
2023/08/01 03:08:13;;;;;;;5.13;3.63;;;21.80;78.40;;;;;;4957776;28;20555;-87
2023/08/01 03:10:41;;;;;;;4.20;3.27;;;21.80;78.40;;;;;;4973974;28;20513;-88
2023/08/01 03:13:09;;;;;;;4.33;3.23;;;21.90;78.50;;;;;;4958104;28;20524;-87
2023/08/01 03:15:38;;;;;;;4.30;3.90;;;21.90;78.40;;;;;;4958767;28;20473;-90
2023/08/01 03:18:07;;;;;;;3.03;2.80;;;22.00;78.10;;;;;;4946936;28;21024;-88
2023/08/01 03:20:37;;;;;;;3.93;3.53;;;21.90;78.10;;;;;;4947256;28;20950;-88
2023/08/01 03:23:06;;;;;;;4.10;3.67;;;21.90;78.20;;;;;;4970470;28;20505;-88
2023/08/01 03:25:34;;;;;;;4.67;3.70;;;21.80;78.30;;;;;;4972231;28;20473;-88
2023/08/01 03:28:03;;;;;;;4.13;3.73;;;21.80;78.40;;;;;;4956909;28;20948;-88
2023/08/01 03:30:32;;;;;;;3.83;3.50;;;21.70;78.60;;;;;;4975503;28;20567;-87
2023/08/01 03:33:02;;;;;;;5.00;4.07;;;21.60;79.20;;;;;;4973791;28;20454;-87
2023/08/01 03:35:31;;;;;;;4.03;3.60;;;21.60;79.40;;;;;;4973178;28;20556;-88
2023/08/01 03:38:01;;;;;;;4.10;3.70;;;21.50;79.70;;;;;;4958137;28;20552;-87
2023/08/01 03:40:30;;;;;;;4.30;3.80;;;21.40;79.80;;;;;;4976018;28;20485;-88
2023/08/01 03:42:59;;;;;;;3.70;3.37;;;21.40;80.10;;;;;;4970835;28;20463;-87
2023/08/01 03:45:27;;;;;;;4.40;3.70;;;21.30;80.50;;;;;;4956057;28;20465;-87
2023/08/01 03:47:56;;;;;;;3.70;3.40;;;21.30;80.50;;;;;;4952135;28;20484;-87
2023/08/01 03:50:26;;;;;;;4.00;3.60;;;21.30;80.60;;;;;;4974328;28;20477;-88
2023/08/01 03:52:54;;;;;;;5.50;3.80;;;21.40;80.40;;;;;;4964140;28;20493;-89
2023/08/01 03:55:24;;;;;;;3.50;3.20;;;21.40;80.30;;;;;;4958648;28;20478;-87
2023/08/01 03:57:53;;;;;;;4.77;3.60;;;21.50;80.20;;;;;;4957376;28;20955;-87
2023/08/01 04:00:22;;;;;;;4.20;3.80;;;21.50;80.20;;;;;;4954536;28;20962;-88
2023/08/01 04:02:52;;;;;;;5.50;3.80;;;21.60;80.00;;;;;;4940067;28;20957;-88
2023/08/01 04:05:20;;;;;;;5.30;3.10;;;21.60;79.90;;;;;;4944462;28;20494;-88
2023/08/01 04:07:49;;;;;;;4.80;3.53;;;21.60;79.70;;;;;;4955712;28;20457;-87
2023/08/01 04:10:18;;;;;;;6.20;3.90;;;21.50;79.90;;;;;;4957722;28;20490;-88
2023/08/01 04:12:47;;;;;;;3.80;3.50;;;21.50;80.00;;;;;;4973488;28;20564;-87
2023/08/01 04:15:16;;;;;;;3.83;3.43;;;21.50;80.10;;;;;;4973684;28;20474;-88
2023/08/01 04:17:45;;;;;;;4.83;3.60;;;21.50;80.10;;;;;;4973638;28;20490;-88
2023/08/01 04:20:13;;;;;;;5.20;3.30;;;21.50;80.10;;;;;;4973266;28;20463;-87
2023/08/01 04:22:42;;;;;;;4.17;3.43;;;21.50;80.10;;;;;;4925434;28;20460;-87
2023/08/01 04:25:10;;;;;;;4.67;4.17;;;21.50;80.20;;;;;;4973968;28;20450;-87
2023/08/01 04:27:38;;;;;;;3.90;2.90;;;21.40;80.40;;;;;;4972346;28;20520;-87
2023/08/01 04:30:11;;;;;;;3.70;3.40;;;21.40;80.50;;;;;;4972711;28;20533;-88
2023/08/01 04:32:39;;;;;;;4.73;4.00;;;21.50;80.50;;;;;;4957370;28;20557;-88
2023/08/01 04:35:08;;;;;;;4.10;3.10;;;21.50;80.30;;;;;;4973893;28;20466;-88
2023/08/01 04:37:37;;;;;;;5.60;3.20;;;21.60;80.00;;;;;;4970917;28;20881;-88
2023/08/01 04:40:06;;;;;;;4.07;3.67;;;21.70;79.90;;;;;;4967227;28;20834;-89
2023/08/01 04:42:35;;;;;;;4.63;3.10;;;21.70;79.60;;;;;;4978755;28;20462;-88
2023/08/01 04:45:06;;;;;;;4.07;3.40;;;21.70;79.60;;;;;;4971555;28;20469;-87
2023/08/01 04:47:37;;;;;;;4.40;4.10;;;21.70;79.40;;;;;;4969683;28;20498;-88
2023/08/01 04:50:07;;;;;;;5.50;4.03;;;21.70;79.60;;;;;;4972361;28;20472;-89
2023/08/01 04:52:35;;;;;;;4.73;4.30;;;21.60;79.70;;;;;;4954463;28;20513;-87
2023/08/01 04:55:05;;;;;;;4.67;3.40;;;21.60;80.00;;;;;;4957477;28;20470;-87
2023/08/01 04:57:33;;;;;;;5.97;4.13;;;21.60;80.10;;;;;;4973667;28;20459;-88
2023/08/01 05:00:03;;;;;;;4.20;3.50;;;21.60;79.80;;;;;;4959094;28;20810;-88
2023/08/01 05:02:31;;;;;;;6.43;4.67;;;21.70;79.70;;;;;;4954094;28;20469;-89
2023/08/01 05:05:02;;;;;;;4.30;3.90;;;21.70;79.60;;;;;;4971327;28;20953;-87
2023/08/01 05:07:31;;;;;;;4.03;3.73;;;21.80;79.40;;;;;;4954553;28;20553;-87
2023/08/01 05:09:59;;;;;;;4.47;4.07;;;21.80;79.30;;;;;;4960062;28;20512;-88
2023/08/01 05:12:28;;;;;;;4.37;4.00;;;21.80;79.20;;;;;;4938989;28;20568;-87
2023/08/01 05:14:56;;;;;;;4.20;3.90;;;21.90;79.20;;;;;;4962776;28;20496;-88
2023/08/01 05:17:25;;;;;;;4.80;3.97;;;21.90;79.20;;;;;;4965891;28;20565;-88
2023/08/01 05:19:55;;;;;;;5.17;4.30;;;21.80;79.20;;;;;;4955436;28;20463;-88
2023/08/01 05:22:25;;;;;;;4.30;3.90;;;21.80;79.10;;;;;;4951005;28;20494;-88
2023/08/01 05:24:54;;;;;;;4.53;3.90;;;21.80;79.20;;;;;;4954788;28;20482;-87
2023/08/01 05:27:22;;;;;;;4.50;3.40;;;21.80;79.20;;;;;;4962998;28;20562;-88
2023/08/01 05:29:50;;;;;;;4.37;3.93;;;21.80;79.10;;;;;;4951365;29;20519;-88
2023/08/01 05:32:20;;;;;;;6.00;3.90;;;21.80;79.00;;;;;;4949111;29;20582;-87
2023/08/01 05:34:48;;;;;;;5.20;4.30;;;21.90;78.80;;;;;;4951681;28;20467;-87
2023/08/01 05:37:17;;;;;;;3.93;3.60;;;21.90;78.70;;;;;;4947852;28;20971;-87
2023/08/01 05:39:47;;;;;;;5.90;4.67;;;21.90;78.60;;;;;;4922711;29;20506;-87
2023/08/01 05:42:16;;;;;;;4.40;4.00;;;22.00;78.60;;;;;;4933263;28;20880;-87
2023/08/01 05:44:46;;;;;;;4.73;4.33;;;22.00;78.50;;;;;;4935015;29;20958;-88
2023/08/01 05:47:15;;;;;;;7.40;4.73;;;21.90;78.60;;;;;;4934742;29;20463;-88
2023/08/01 05:49:44;;;;;;;4.30;3.90;;;21.80;78.70;;;;;;4944797;28;20468;-87
2023/08/01 05:52:12;;;;;;;4.70;3.53;;;21.80;78.90;;;;;;4947669;29;20481;-89
2023/08/01 05:54:41;;;;;;;5.73;3.50;;;21.80;78.80;;;;;;4952961;29;20514;-88
2023/08/01 05:57:11;;;;;;;4.77;3.80;;;21.80;78.40;;;;;;4943240;28;20477;-87
2023/08/01 05:59:40;;;;;;;4.73;4.33;;;21.70;78.50;;;;;;4928837;28;20868;-89
2023/08/01 06:02:09;;;;;;;4.50;3.80;;;21.70;78.60;;;;;;4951275;28;20467;-87
2023/08/01 06:04:38;;;;;;;4.07;3.53;;;21.70;78.70;;;;;;4952379;28;20522;-87
2023/08/01 06:07:07;;;;;;;4.20;3.80;;;21.80;78.20;;;;;;4949233;29;20463;-88
2023/08/01 06:09:35;;;;;;;3.70;3.30;;;21.80;77.90;;;;;;4930774;29;20958;-87
2023/08/01 06:12:04;;;;;;;4.30;3.47;;;21.90;77.60;;;;;;4932239;28;20523;-88
2023/08/01 06:14:34;;;;;;;4.57;3.90;;;22.00;77.30;;;;;;4942141;28;20534;-87
2023/08/01 06:17:02;;;;;;;3.47;2.87;;;22.10;77.00;;;;;;4951308;28;20459;-89
2023/08/01 06:19:31;;;;;;;3.83;3.37;;;22.10;77.20;;;;;;4955382;28;20852;-87
2023/08/01 06:22:00;;;;;;;4.27;3.87;;;22.20;76.90;;;;;;4969022;28;20486;-88
2023/08/01 06:24:28;;;;;;;4.63;4.23;;;22.20;76.90;;;;;;4970940;28;20461;-87
2023/08/01 06:26:56;;;;;;;3.60;3.20;;;22.20;76.70;;;;;;4971672;28;20461;-87
2023/08/01 06:29:25;;;;;;;5.73;3.43;;;22.30;76.30;;;;;;4974397;28;20473;-88
2023/08/01 06:31:55;;;;;;;5.20;3.73;;;22.30;76.30;;;;;;4954630;28;20512;-87
2023/08/01 06:34:24;;;;;;;3.60;3.30;;;22.30;75.70;;;;;;4967912;28;20901;-88
2023/08/01 06:36:54;;;;;;;8.50;3.80;;;22.30;75.90;;;;;;4971431;28;20941;-88
2023/08/01 06:39:22;;;;;;;4.27;3.70;;;22.30;76.00;;;;;;4971079;28;20442;-88
2023/08/01 06:41:51;;;;;;;6.67;3.40;;;22.30;75.90;;;;;;4965508;28;20458;-89
2023/08/01 06:44:19;;;;;;;3.50;3.13;;;22.40;76.00;;;;;;4954405;28;20835;-88
2023/08/01 06:46:48;;;;;;;3.87;3.53;;;22.40;75.20;;;;;;4966118;28;20853;-88
2023/08/01 06:49:18;;;;;;;4.03;3.20;;;22.40;75.40;;;;;;4954479;28;20470;-88
2023/08/01 06:51:47;;;;;;;4.40;3.53;;;22.30;75.40;;;;;;4949817;28;20846;-85
2023/08/01 06:54:16;;;;;;;4.40;3.47;;;22.30;75.50;;;;;;4969574;28;20487;-85
2023/08/01 06:56:48;;;;;;;3.83;3.30;;;22.30;75.90;;;;;;4954552;28;20460;-85
2023/08/01 06:59:16;;;;;;;4.53;4.00;;;22.20;75.50;;;;;;4948615;28;20467;-81
2023/08/01 07:01:45;;;;;;;7.40;3.37;;;22.40;76.10;;;;;;4967809;28;20560;-79
2023/08/01 07:04:14;;;;;;;6.47;4.00;;;22.60;75.80;;;;;;4969696;28;20450;-81
2023/08/01 07:06:44;;;;;;;4.13;3.70;;;22.80;75.50;;;;;;4970513;28;20471;-79
2023/08/01 07:09:13;;;;;;;6.30;3.70;;;23.10;74.80;;;;;;4970609;28;20943;-79
2023/08/01 07:11:41;;;;;;;3.30;2.90;;;23.30;74.30;;;;;;4971560;28;20444;-79
2023/08/01 07:14:09;;;;;;;5.40;3.53;;;23.50;73.90;;;;;;4969723;28;20484;-80
2023/08/01 07:16:38;;;;;;;4.20;3.40;;;23.70;73.40;;;;;;4970903;28;20454;-78
2023/08/01 07:19:07;;;;;;;3.10;2.80;;;23.80;73.00;;;;;;4971077;28;20491;-80
2023/08/01 07:21:35;;;;;;;3.40;3.10;;;24.00;72.70;;;;;;4970543;28;20492;-78
2023/08/01 07:24:05;;;;;;;5.13;3.30;;;24.10;72.50;;;;;;4971597;28;20469;-79
2023/08/01 07:26:34;;;;;;;3.10;2.90;;;24.20;72.30;;;;;;4957035;28;20485;-79
2023/08/01 07:29:02;;;;;;;4.50;2.90;;;24.30;72.00;;;;;;4976346;28;20950;-79
2023/08/01 07:31:32;;;;;;;4.53;3.73;;;24.40;71.90;;;;;;4970695;28;20481;-79
2023/08/01 07:34:01;;;;;;;3.73;3.43;;;24.40;71.70;;;;;;4972927;28;20479;-79
2023/08/01 07:36:30;;;;;;;3.53;3.03;;;24.50;71.40;;;;;;4976215;28;20462;-80
2023/08/01 07:38:58;;;;;;;4.10;2.73;;;24.60;71.40;;;;;;4972899;28;20459;-81
2023/08/01 07:41:28;;;;;;;7.47;3.63;;;24.60;71.30;;;;;;4972737;28;20869;-81
2023/08/01 07:43:56;;;;;;;4.03;2.93;;;24.70;71.20;;;;;;4957052;28;20607;-80
2023/08/01 07:46:24;;;;;;;3.60;2.83;;;24.70;71.00;;;;;;4972953;28;20506;-83
2023/08/01 07:48:53;;;;;;;4.10;2.90;;;24.80;71.00;;;;;;4975272;28;20467;-81
2023/08/01 07:51:22;;;;;;;3.10;2.80;;;24.90;70.90;;;;;;4973396;28;20460;-79
2023/08/01 07:53:52;;;;;;;5.53;2.97;;;24.90;70.70;;;;;;4973764;28;20985;-80
2023/08/01 07:56:20;;;;;;;4.33;2.70;;;25.00;70.60;;;;;;4975488;28;20445;-80
2023/08/01 07:58:50;;;;;;;3.13;2.80;;;25.00;70.60;;;;;;4973128;28;20539;-80
2023/08/01 08:01:18;;;;;;;3.50;3.20;;;25.00;70.60;;;;;;4961536;28;20468;-81
2023/08/01 08:03:46;;;;;;;3.30;2.93;;;25.10;70.40;;;;;;4973026;28;20470;-82
2023/08/01 08:06:14;;;;;;;3.03;2.67;;;25.10;70.30;;;;;;4972949;28;20452;-83
2023/08/01 08:08:43;;;;;;;3.80;2.77;;;25.10;70.20;;;;;;4973980;28;20469;-82
2023/08/01 08:11:11;;;;;;;3.40;3.10;;;25.20;70.20;;;;;;4971085;28;20463;-83
2023/08/01 08:13:39;;;;;;;2.73;2.53;;;25.20;69.90;;;;;;4969139;28;20495;-83
2023/08/01 08:16:09;;;;;;;3.90;3.30;;;25.30;69.90;;;;;;4972289;28;20468;-82
2023/08/01 08:18:37;;;;;;;4.23;3.03;;;25.30;69.80;;;;;;4973109;28;20574;-82
2023/08/01 08:21:05;;;;;;;4.23;3.20;;;25.30;69.70;;;;;;4972753;28;20433;-82
2023/08/01 08:23:34;;;;;;;5.03;3.30;;;25.40;69.80;;;;;;4969752;28;20545;-81
2023/08/01 08:26:04;;;;;;;2.73;2.50;;;25.40;69.70;;;;;;4969072;28;20484;-83
2023/08/01 08:28:34;;;;;;;3.20;2.90;;;25.40;69.50;;;;;;4970253;28;20483;-83
2023/08/01 08:31:03;;;;;;;3.93;3.33;;;25.40;69.60;;;;;;4972405;28;20538;-81
2023/08/01 08:33:33;;;;;;;3.57;3.17;;;25.50;69.40;;;;;;4973164;28;20939;-83
2023/08/01 08:36:02;;;;;;;2.87;2.60;;;25.50;69.30;;;;;;4971115;28;20453;-85
2023/08/01 08:38:30;;;;;;;3.20;2.90;;;25.50;69.30;;;;;;4974328;28;20502;-82
2023/08/01 08:41:07;;;;;;;3.23;2.93;;;25.50;69.30;;;;;;4958008;28;20465;-82
2023/08/01 08:43:35;;;;;;;3.90;2.43;;;25.60;69.10;;;;;;4973599;28;20445;-81
2023/08/01 08:46:05;;;;;;;3.80;2.77;;;25.60;69.10;;;;;;4973778;28;20474;-83
2023/08/01 08:48:38;;;;;;;3.00;2.70;;;25.60;69.00;;;;;;4972917;28;20473;-81
2023/08/01 08:51:08;;;;;;;5.27;2.70;;;25.60;68.90;;;;;;4970834;28;20449;-80
2023/08/01 08:53:37;;;;;;;5.77;2.77;;;25.60;69.00;;;;;;4969762;28;20451;-82
2023/08/01 08:56:09;;;;;;;2.70;2.33;;;25.60;69.00;;;;;;4972984;28;20590;-81
2023/08/01 08:58:38;;;;;;;3.27;2.97;;;25.70;68.90;;;;;;4970987;28;20492;-82
2023/08/01 09:01:08;;;;;;;3.90;3.60;;;25.60;68.90;;;;;;4955490;28;20797;-83
2023/08/01 09:03:37;;;;;;;3.40;2.73;;;25.70;68.90;;;;;;4972021;28;20450;-83
2023/08/01 09:06:10;;;;;;;3.27;2.70;;;25.70;68.80;;;;;;4975361;28;20442;-81
2023/08/01 09:08:45;;;;;;;4.47;2.80;;;25.70;68.80;;;;;;4975413;28;20448;-81
2023/08/01 09:11:13;;;;;;;4.30;2.77;;;25.70;68.70;;;;;;4973353;28;20465;-81
2023/08/01 09:13:41;;;;;;;2.83;2.47;;;25.70;68.70;;;;;;4973451;28;20531;-81
2023/08/01 09:16:11;;;;;;;4.83;2.80;;;25.70;68.70;;;;;;4971404;28;20458;-81
2023/08/01 09:18:50;;;;;;;2.40;2.20;;;25.80;68.60;;;;;;4973506;28;20481;-81
2023/08/01 09:21:22;;;;;;;3.80;2.83;;;25.80;68.60;;;;;;4974300;28;20450;-80
2023/08/01 09:23:50;;;;;;;2.40;2.20;;;25.80;68.60;;;;;;4973562;28;20462;-80
2023/08/01 09:26:20;;;;;;;3.80;2.60;;;25.80;68.70;;;;;;4956073;28;20482;-80
2023/08/01 09:28:56;;;;;;;2.63;2.40;;;25.80;68.70;;;;;;4971910;28;20867;-80
2023/08/01 09:31:28;;;;;;;4.13;2.70;;;25.80;68.70;;;;;;4973681;28;20464;-80
2023/08/01 09:34:00;;;;;;;3.13;2.20;;;25.80;68.60;;;;;;4971640;28;20445;-83
2023/08/01 09:36:29;;;;;;;2.40;2.20;;;25.80;68.60;;;;;;4971704;28;20494;-80
2023/08/01 09:39:01;;;;;;;2.63;2.43;;;25.80;68.60;;;;;;4967156;28;22291;-81
2023/08/01 09:41:30;;;;;;;2.87;2.43;;;25.80;68.70;;;;;;4971542;28;20516;-84
2023/08/01 09:43:59;;;;;;;2.57;2.37;;;25.80;68.80;;;;;;4971011;28;20458;-82
2023/08/01 09:46:27;;;;;;;2.60;2.40;;;25.80;68.70;;;;;;4970264;28;20464;-81
2023/08/01 09:48:55;;;;;;;2.80;2.40;;;25.80;68.80;;;;;;4971532;28;20906;-80
2023/08/01 09:51:25;;;;;;;2.63;2.43;;;25.80;68.90;;;;;;4967401;28;20853;-81
2023/08/01 09:53:54;;;;;;;2.43;2.23;;;25.80;68.80;;;;;;4968210;28;20469;-82
2023/08/01 09:56:24;;;;;;;7.20;2.80;;;25.80;68.60;;;;;;4968702;28;21035;-81
2023/08/01 09:58:54;;;;;;;9.80;3.20;;;25.80;68.60;;;;;;4972162;28;20514;-82
2023/08/01 10:01:24;;;;;;;6.40;3.00;;;25.80;68.70;;;;;;4971483;28;20496;-84
2023/08/01 10:03:54;;;;;;;2.00;1.90;;;25.80;68.90;;;;;;4971228;28;20849;-81
2023/08/01 10:06:25;;;;;;;3.20;2.20;;;25.80;68.80;;;;;;4972769;28;20503;-82
2023/08/01 13:43:14;;;;;;;4.40;2.80;;;26.90;66.50;;;;;;6073476;23;21309;31
2023/08/01 13:45:43;;;;;;;4.93;2.60;;;26.90;66.30;;;;;;4853044;29;20492;-87
2023/08/01 13:48:12;;;;;;;4.97;3.40;;;26.90;66.40;;;;;;4874332;29;20558;-87
2023/08/01 13:50:40;;;;;;;3.00;2.37;;;26.90;66.20;;;;;;4872757;29;20555;-85
2023/08/01 13:53:11;;;;;;;6.50;3.17;;;26.90;66.20;;;;;;4859902;29;20481;-84
2023/08/01 13:55:40;;;;;;;4.07;2.73;;;26.90;66.30;;;;;;4874031;29;20485;-84
2023/08/01 13:58:08;;;;;;;4.20;2.20;;;27.00;66.70;;;;;;4878329;29;20463;-84
2023/08/01 14:00:38;;;;;;;8.70;2.10;;;27.10;66.60;;;;;;4876367;29;21463;-84
2023/08/01 14:03:06;;;;;;;3.97;2.50;;;27.10;66.80;;;;;;4851657;29;20494;-86
2023/08/01 14:05:34;;;;;;;4.43;2.57;;;27.20;66.50;;;;;;4871738;29;20536;-87
2023/08/01 14:08:02;;;;;;;6.83;2.93;;;27.20;66.50;;;;;;4877880;29;20471;-83
2023/08/01 14:10:31;;;;;;;4.70;3.80;;;27.30;66.40;;;;;;4873630;29;20463;-82
2023/08/01 14:12:59;;;;;;;2.83;2.43;;;27.30;66.40;;;;;;4877905;29;20478;-84
2023/08/01 14:15:27;;;;;;;4.10;2.40;;;27.40;66.20;;;;;;4877059;29;20479;-84
2023/08/01 14:17:57;;;;;;;5.43;2.70;;;27.40;66.30;;;;;;4878174;29;20852;-85
2023/08/01 14:20:25;;;;;;;6.50;2.50;;;27.40;66.40;;;;;;4875940;29;20468;-89
2023/08/01 14:22:53;;;;;;;5.20;3.07;;;27.40;66.40;;;;;;4872189;29;20513;-84
2023/08/01 14:25:21;;;;;;;3.37;2.43;;;27.40;66.20;;;;;;4859585;29;20976;-85
2023/08/01 14:27:50;;;;;;;4.37;2.80;;;27.40;66.30;;;;;;4859589;29;20459;-84
2023/08/01 14:30:18;;;;;;;2.53;2.30;;;27.40;66.10;;;;;;4872299;29;20475;-81
2023/08/01 14:32:46;;;;;;;4.97;2.37;;;27.40;66.10;;;;;;4877479;29;21028;-85
2023/08/01 14:35:15;;;;;;;3.37;2.43;;;27.40;66.30;;;;;;4877562;29;20534;-82
2023/08/01 14:37:48;;;;;;;2.67;2.47;;;27.40;66.20;;;;;;4861645;29;20473;-83
2023/08/01 14:40:16;;;;;;;4.03;2.63;;;27.40;66.40;;;;;;4872895;29;20474;-82
2023/08/01 14:42:44;;;;;;;4.20;2.70;;;27.30;66.70;;;;;;4876881;29;20469;-84
2023/08/01 14:45:14;;;;;;;3.30;2.40;;;27.30;66.80;;;;;;4871414;29;20909;-84
2023/08/01 14:47:42;;;;;;;2.57;2.37;;;27.30;66.80;;;;;;4897417;29;20462;-84
2023/08/01 14:50:11;;;;;;;3.07;2.77;;;27.30;66.90;;;;;;4895022;29;20469;-82
2023/08/01 14:52:41;;;;;;;4.20;2.70;;;27.30;66.90;;;;;;4898630;29;20486;-83
2023/08/01 14:55:09;;;;;;;2.33;2.13;;;27.30;67.00;;;;;;4894707;29;20483;-82
2023/08/01 14:57:38;;;;;;;3.90;2.07;;;27.40;67.00;;;;;;4898870;29;20921;-82
2023/08/01 15:00:07;;;;;;;2.33;2.13;;;27.40;67.20;;;;;;4894971;29;20463;-82
2023/08/01 15:02:38;;;;;;;2.63;2.27;;;27.40;67.10;;;;;;4878922;29;20463;-81
2023/08/01 15:05:07;;;;;;;2.40;2.00;;;27.40;67.10;;;;;;4898181;29;20466;-83
2023/08/01 15:07:35;;;;;;;3.77;2.33;;;27.40;66.80;;;;;;4897319;29;20454;-86
2023/08/01 15:10:10;;;;;;;3.53;2.70;;;27.40;66.90;;;;;;4893579;29;20455;-83
2023/08/01 15:12:38;;;;;;;4.67;2.70;;;27.40;67.00;;;;;;4896172;29;20551;-82
2023/08/01 15:15:08;;;;;;;2.47;2.10;;;27.50;66.90;;;;;;4893586;29;20450;-84
2023/08/01 15:17:36;;;;;;;1.93;1.83;;;27.50;66.80;;;;;;4893607;29;20522;-84
2023/08/01 15:20:05;;;;;;;2.63;2.43;;;27.60;66.70;;;;;;4893162;29;20461;-89
2023/08/01 15:22:34;;;;;;;3.17;1.90;;;27.60;66.80;;;;;;4897393;29;20893;-82
2023/08/01 15:25:02;;;;;;;2.47;2.27;;;27.70;66.70;;;;;;4898579;29;20452;-82
2023/08/01 15:27:31;;;;;;;3.40;2.93;;;27.70;66.80;;;;;;4901950;29;20450;-83
2023/08/01 15:30:00;;;;;;;3.57;1.93;;;27.70;66.60;;;;;;4899703;29;20455;-85
2023/08/01 15:32:28;;;;;;;3.60;2.47;;;27.80;66.50;;;;;;4893715;29;20455;-81
2023/08/01 15:34:56;;;;;;;3.00;2.17;;;27.80;66.50;;;;;;4896938;29;20443;-82
2023/08/01 15:37:24;;;;;;;1.80;1.53;;;27.80;66.50;;;;;;4897423;29;20996;-85
2023/08/01 15:39:53;;;;;;;2.50;2.27;;;27.90;66.20;;;;;;4893845;29;20564;-84
2023/08/01 15:42:21;;;;;;;4.13;2.37;;;27.90;66.20;;;;;;4900062;29;20471;-83
2023/08/01 15:44:50;;;;;;;4.07;2.30;;;27.80;65.80;;;;;;4891508;29;20968;-83
2023/08/01 15:47:18;;;;;;;3.40;2.47;;;27.80;65.60;;;;;;4878082;29;20867;-84
2023/08/01 15:49:47;;;;;;;3.07;2.07;;;27.70;65.20;;;;;;4858471;29;20996;-87
2023/08/01 15:52:15;;;;;;;3.43;2.10;;;27.70;65.30;;;;;;4857443;29;20473;-85
2023/08/01 15:54:43;;;;;;;2.43;1.90;;;27.60;65.30;;;;;;4876298;29;20488;-83
2023/08/01 15:57:11;;;;;;;3.63;2.40;;;27.60;65.30;;;;;;4880499;29;20471;-84
2023/08/01 15:59:39;;;;;;;4.23;2.23;;;27.60;65.30;;;;;;4863735;29;21275;-83
2023/08/01 16:02:09;;;;;;;3.80;2.30;;;27.60;65.20;;;;;;4865103;29;20572;-83
2023/08/01 16:04:38;;;;;;;2.37;1.97;;;27.60;65.20;;;;;;4880073;29;20485;-87
2023/08/01 16:07:06;;;;;;;2.23;2.03;;;27.60;65.50;;;;;;4880176;29;20479;-84
2023/08/01 16:09:34;;;;;;;3.13;2.40;;;27.70;65.20;;;;;;4880212;29;20463;-85
2023/08/01 16:12:03;;;;;;;5.87;1.83;;;27.80;65.20;;;;;;4882413;29;20446;-84
2023/08/01 16:14:31;;;;;;;5.37;3.77;;;27.90;65.10;;;;;;4878218;29;20458;-83
2023/08/01 16:17:09;;;;;;;3.30;2.90;;;27.90;65.10;;;;;;4877343;29;20487;-87
2023/08/01 16:19:38;;;;;;;2.33;2.17;;;28.00;65.00;;;;;;4878539;29;20491;-84
2023/08/01 16:22:06;;;;;;;2.33;1.80;;;28.10;65.00;;;;;;4861719;29;20817;-84
2023/08/01 16:24:35;;;;;;;2.60;1.90;;;28.10;65.00;;;;;;4879260;29;20479;-83
2023/08/01 16:27:04;;;;;;;3.10;2.20;;;28.10;65.10;;;;;;4880584;29;20939;-84
2023/08/01 16:29:32;;;;;;;2.63;1.80;;;28.10;65.10;;;;;;4881373;29;20465;-83
2023/08/01 16:32:00;;;;;;;1.27;1.17;;;28.10;65.20;;;;;;4857957;29;20495;-83